Addis, Louisiana
Current Conditions -  °F | °C
As of 6:53 PM on Wednesday 22 Oct 2014 (Local Time) from KBTR Reporting Station
Clear Clear  
Wind Chill: 65°   Ceiling: Unl
Heat Index: 65°   Visibility: 10mi
Dew Point: 55°   Wind: 3mph
Humidity: 70%   Direction: 10°N
Pressure: 30.05"   Gusts: NA
Location:  30.35°N, 91.27°W
Report Text: KBTR 222353Z AUTO 01003KT 10SM CLR 18/13 A3005 RMK AO2 SLP174 T01830128 10267 20183 53002 TSNO
Loading
Personal Weather Stations






























Interactive Weather Map
Tropical Storm Tracking
New forecast layout! Learn more

10-Day Weather Forecast

Advertisements
Track Severe Weather on mobile